Midlothian, IL (60445)

14:28 CST le 26 janvier 2015 (GMT -0600)
151st & Central Ave. | Change Station
CLOSE
Current Station
Stations météorologiques personnelles
Location: Oak Forest, IL
Altitude: 645 ft
Stations météo à proximité

Alt. 645 ft 41.62 °N, 87.76 °W | Updated 4 seconds ago

Neige
Neige
27.3 ° F
Paraît 27 ° F
N
0.0
Vent Variable Vent de SO
Gusts 0.0 mph

Aujourd'hui
Haut(e) -- | Bas -- ° F
--% Risque de précip.
Hier
Haut(e) -- | Bas -- ° F
Precip. -- pouce
7:08 AM 4:58 PM
Lune montante, 46% visible
Pression 29.88 pouce
Visibilité 2.5 Miles terrestres
Nuages Nuageux 1800 ft
Nuageux 3000 ft
Couvert 4800 ft
Refroidissement éolien 27 ° F
Point de rosée 21 ° F
Humidité 76%
Précipitations 0.00 pouce
Profondeur de la couche neigeuse Non disponible.
UV 1 sur 12
Pollen .10 sur 12
Qualité de l'air Non disponible.
Flu Activity Non disponible.
SPECI KMDW 262014Z 21005KT 2 1/2SM -SN BKN018 BKN030 OVC048 M02/M06 A2988 RMK AO2 P0000 T10221061

More Conditions Fewer Conditions

Pression 29.88 pouce
Visibilité 2.5 Miles terrestres
Nuages Nuageux 1800 ft
Nuageux 3000 ft
Couvert 4800 ft
Refroidissement éolien 27 ° F
Point de rosée 21 ° F
Humidité 76%
Précipitations 0.00 pouce
Profondeur de la couche neigeuse Non disponible.
UV 1 sur 12
Pollen .10 sur 12
Qualité de l'air Non disponible.
Flu Activity Non disponible.
SPECI KMDW 262014Z 21005KT 2 1/2SM -SN BKN018 BKN030 OVC048 M02/M06 A2988 RMK AO2 P0000 T10221061

More Conditions Fewer Conditions

10-Day Weather Forecast

Almanac

Astronomie

Jan. 26, 2015 Lever Coucher
Temps réel
Crépuscule civil
Crépuscule nautique
Crépuscule astronomique
Lune
Durée de lumière visible
Longueur du jour
Tomorrow will be .
, % of the Moon is Illuminated

Extrêmes aujourd'hui

State Highs State Lows

Community

WunderPhotos

Upload Photos

1,790,350 Photos téléchargées !

WunderBlogs® & News

Nearby

Qualité de l'air

  Qualité de l'air Indice de la qualité de l'air Polluant
Not available.

Épaisseur de neige

Station Depth Altitude

Activité sismique

Ville Distance Mag. Time & Date
Minimum magnitude displayed is 2.5.

Températures des eaux côtières

Lieu Température

Stations météo à proximité